Time,TemperatureF,DewpointF,PressureIn,WindDirection,WindDirectionDegrees,WindSpeedMPH,WindSpeedGustMPH,Humidity,HourlyPrecipIn,Conditions,Clouds,dailyrainin,SoftwareType,DateUTC
2013-03-30 00:00:00,40.5,28.9,30.07,East,90,2.9,4.0,63,0.00,,,0.00,WUHU216HW,2013-03-30 04:00:00,
2013-03-30 00:05:00,40.1,28.9,30.07,ENE,68,2.2,3.4,64,0.00,,,0.00,WUHU216HW,2013-03-30 04:05:00,
2013-03-30 00:10:00,40.0,28.4,30.07,East,90,4.5,4.5,63,0.00,,,0.00,WUHU216HW,2013-03-30 04:10:00,
2013-03-30 00:15:00,39.8,28.5,30.07,NE,45,5.4,5.4,64,0.00,,,0.00,WUHU216HW,2013-03-30 04:15:00,
2013-03-30 00:20:00,40.0,29.4,30.07,East,90,5.1,6.9,66,0.00,,,0.00,WUHU216HW,2013-03-30 04:20:00,
2013-03-30 00:25:00,40.0,29.1,30.07,East,90,2.2,6.9,65,0.00,,,0.00,WUHU216HW,2013-03-30 04:25:00,
2013-03-30 00:30:00,39.8,29.3,30.07,ESE,113,2.7,4.5,66,0.00,,,0.00,WUHU216HW,2013-03-30 04:30:00,
2013-03-30 00:35:00,39.4,28.5,30.07,East,90,2.9,3.8,65,0.00,,,0.00,WUHU216HW,2013-03-30 04:35:00,
2013-03-30 00:40:00,39.2,28.7,30.07,East,90,3.8,4.5,66,0.00,,,0.00,WUHU216HW,2013-03-30 04:40:00,
2013-03-30 00:45:00,38.9,28.8,30.07,East,90,4.0,5.1,67,0.00,,,0.00,WUHU216HW,2013-03-30 04:45:00,
2013-03-30 00:50:00,38.5,28.4,30.07,East,90,2.2,5.1,67,0.00,,,0.00,WUHU216HW,2013-03-30 04:50:00,
2013-03-30 00:55:00,38.3,28.3,30.07,ESE,113,3.4,4.0,67,0.00,,,0.00,WUHU216HW,2013-03-30 04:55:00,
2013-03-30 01:00:00,37.8,27.8,30.07,ESE,113,5.6,5.8,67,0.00,,,0.00,WUHU216HW,2013-03-30 05:00:00,
2013-03-30 01:05:00,37.3,27.7,30.07,ESE,113,3.8,6.3,68,0.00,,,0.00,WUHU216HW,2013-03-30 05:05:00,
2013-03-30 01:10:00,37.1,27.6,30.07,East,90,3.6,6.3,68,0.00,,,0.00,WUHU216HW,2013-03-30 05:10:00,
2013-03-30 01:15:00,36.7,27.9,30.07,ESE,113,4.7,7.6,70,0.00,,,0.00,WUHU216HW,2013-03-30 05:15:00,
2013-03-30 01:20:00,36.5,27.4,30.07,East,90,1.8,7.6,69,0.00,,,0.00,WUHU216HW,2013-03-30 05:20:00,
2013-03-30 01:25:00,36.4,27.2,30.07,ENE,68,1.3,4.0,69,0.00,,,0.00,WUHU216HW,2013-03-30 05:25:00,
2013-03-30 01:30:00,36.4,27.5,30.07,ESE,113,4.9,4.9,70,0.00,,,0.00,WUHU216HW,2013-03-30 05:30:00,
2013-03-30 01:35:00,36.4,27.5,30.07,SE,135,3.6,4.9,70,0.00,,,0.00,WUHU216HW,2013-03-30 05:35:00,
2013-03-30 01:40:00,36.7,27.9,30.07,East,90,3.6,4.7,70,0.00,,,0.00,WUHU216HW,2013-03-30 05:40:00,
2013-03-30 01:45:00,36.7,27.9,30.07,East,90,4.7,6.5,70,0.00,,,0.00,WUHU216HW,2013-03-30 05:45:00,
2013-03-30 01:50:00,36.9,28.1,30.07,SE,135,1.3,6.5,70,0.00,,,0.00,WUHU216HW,2013-03-30 05:50:00,
2013-03-30 01:55:00,36.7,27.9,30.07,ESE,113,3.4,6.3,70,0.00,,,0.00,WUHU216HW,2013-03-30 05:55:00,
2013-03-30 02:00:00,36.5,27.7,30.07,NE,45,5.4,5.4,70,0.00,,,0.00,WUHU216HW,2013-03-30 06:00:00,
2013-03-30 02:05:00,36.4,27.5,30.07,East,90,4.3,5.4,70,0.00,,,0.00,WUHU216HW,2013-03-30 06:05:00,
2013-03-30 02:10:00,36.2,27.4,30.06,ENE,68,6.5,6.7,70,0.00,,,0.00,WUHU216HW,2013-03-30 06:10:00,
2013-03-30 02:15:00,36.0,27.6,30.07,East,90,4.3,6.7,71,0.00,,,0.00,WUHU216HW,2013-03-30 06:15:00,
2013-03-30 02:20:00,36.2,28.0,30.07,East,90,4.9,5.4,72,0.00,,,0.00,WUHU216HW,2013-03-30 06:20:00,
2013-03-30 02:25:00,36.0,27.6,30.07,ESE,113,4.7,5.1,71,0.00,,,0.00,WUHU216HW,2013-03-30 06:25:00,
2013-03-30 02:30:00,35.8,27.4,30.07,ESE,113,6.5,6.5,71,0.00,,,0.00,WUHU216HW,2013-03-30 06:30:00,
2013-03-30 02:35:00,35.6,27.2,30.07,East,90,4.7,6.5,71,0.00,,,0.00,WUHU216HW,2013-03-30 06:35:00,
2013-03-30 02:40:00,35.5,27.3,30.07,East,90,4.0,6.5,72,0.00,,,0.00,WUHU216HW,2013-03-30 06:40:00,
2013-03-30 02:45:00,35.1,26.9,30.07,ESE,113,4.9,5.4,72,0.00,,,0.00,WUHU216HW,2013-03-30 06:45:00,
2013-03-30 02:50:00,34.7,26.6,30.07,East,90,2.5,5.4,72,0.00,,,0.00,WUHU216HW,2013-03-30 06:50:00,
2013-03-30 02:55:00,34.6,26.4,30.07,ENE,68,3.4,4.3,72,0.00,,,0.00,WUHU216HW,2013-03-30 06:55:00,
2013-03-30 03:00:00,34.4,26.6,30.07,East,90,1.8,3.6,73,0.00,,,0.00,WUHU216HW,2013-03-30 07:00:00,
2013-03-30 03:05:00,34.2,26.0,30.07,East,90,2.0,3.4,72,0.00,,,0.00,WUHU216HW,2013-03-30 07:05:00,
2013-03-30 03:10:00,34.2,26.0,30.07,ESE,113,1.8,2.7,72,0.00,,,0.00,WUHU216HW,2013-03-30 07:10:00,
2013-03-30 03:15:00,34.0,25.8,30.07,East,90,4.3,4.3,72,0.00,,,0.00,WUHU216HW,2013-03-30 07:15:00,
2013-03-30 03:20:00,33.8,25.7,30.07,ESE,113,6.9,6.9,72,0.00,,,0.00,WUHU216HW,2013-03-30 07:20:00,
2013-03-30 03:25:00,33.5,25.7,30.07,East,90,4.7,6.9,73,0.00,,,0.00,WUHU216HW,2013-03-30 07:25:00,
2013-03-30 03:30:00,33.5,25.7,30.07,East,90,3.4,6.7,73,0.00,,,0.00,WUHU216HW,2013-03-30 07:30:00,
2013-03-30 03:35:00,33.5,25.7,30.07,ESE,113,4.0,4.3,73,0.00,,,0.00,WUHU216HW,2013-03-30 07:35:00,
2013-03-30 03:40:00,33.5,26.0,30.07,East,90,3.4,4.7,74,0.00,,,0.00,WUHU216HW,2013-03-30 07:40:00,
2013-03-30 03:45:00,33.5,26.0,30.07,ESE,113,3.1,4.7,74,0.00,,,0.00,WUHU216HW,2013-03-30 07:45:00,
2013-03-30 03:50:00,33.7,26.5,30.07,SSW,203,1.1,3.8,75,0.00,,,0.00,WUHU216HW,2013-03-30 07:50:00,
2013-03-30 03:55:00,33.5,26.0,30.07,East,90,1.1,2.5,74,0.00,,,0.00,WUHU216HW,2013-03-30 07:55:00,
2013-03-30 04:00:00,33.5,26.0,30.07,West,270,0.4,1.6,74,0.00,,,0.00,WUHU216HW,2013-03-30 08:00:00,
2013-03-30 04:05:00,33.3,25.8,30.07,ENE,68,0.7,1.6,74,0.00,,,0.00,WUHU216HW,2013-03-30 08:05:00,
2013-03-30 04:10:00,33.1,25.7,30.07,ENE,68,1.1,2.2,74,0.00,,,0.00,WUHU216HW,2013-03-30 08:10:00,
2013-03-30 04:15:00,32.9,25.5,30.07,NE,45,0.0,2.2,74,0.00,,,0.00,WUHU216HW,2013-03-30 08:15:00,
2013-03-30 04:20:00,32.8,25.4,30.08,SSE,158,1.1,1.3,74,0.00,,,0.00,WUHU216HW,2013-03-30 08:20:00,
2013-03-30 04:25:00,32.8,25.4,30.08,WSW,248,0.4,1.3,74,0.00,,,0.00,WUHU216HW,2013-03-30 08:25:00,
2013-03-30 04:30:00,32.8,25.7,30.08,South,180,0.7,1.3,75,0.00,,,0.00,WUHU216HW,2013-03-30 08:30:00,
2013-03-30 04:35:00,32.8,25.7,30.08,SW,225,0.0,1.3,75,0.00,,,0.00,WUHU216HW,2013-03-30 08:35:00,
2013-03-30 04:40:00,32.6,25.8,30.08,ENE,68,2.0,2.0,76,0.00,,,0.00,WUHU216HW,2013-03-30 08:40:00,
2013-03-30 04:45:00,32.4,25.4,30.08,SSE,158,0.0,2.0,75,0.00,,,0.00,WUHU216HW,2013-03-30 08:45:00,
2013-03-30 04:50:00,32.2,25.2,30.08,SW,225,0.0,1.6,75,0.00,,,0.00,WUHU216HW,2013-03-30 08:50:00,
2013-03-30 04:55:00,32.2,25.2,30.08,ENE,68,0.4,0.7,75,0.00,,,0.00,WUHU216HW,2013-03-30 08:55:00,
2013-03-30 05:00:00,32.2,25.2,30.08,East,90,0.4,1.3,75,0.00,,,0.00,WUHU216HW,2013-03-30 09:00:00,
2013-03-30 05:05:00,32.0,25.0,30.08,West,270,0.0,1.3,75,0.00,,,0.00,WUHU216HW,2013-03-30 09:05:00,
2013-03-30 05:10:00,32.0,25.4,30.08,ENE,68,1.6,1.6,76,0.00,,,0.00,WUHU216HW,2013-03-30 09:10:00,
2013-03-30 05:15:00,31.9,25.2,30.08,WSW,248,0.9,1.6,76,0.00,,,0.00,WUHU216HW,2013-03-30 09:15:00,
2013-03-30 05:20:00,31.7,25.0,30.08,WSW,248,0.0,1.6,76,0.00,,,0.00,WUHU216HW,2013-03-30 09:20:00,
2013-03-30 05:25:00,31.7,25.0,30.08,WSW,248,0.0,1.3,76,0.00,,,0.00,WUHU216HW,2013-03-30 09:25:00,
2013-03-30 05:30:00,31.7,25.0,30.09,WSW,248,0.0,0.0,76,0.00,,,0.00,WUHU216HW,2013-03-30 09:30:00,
2013-03-30 05:34:00,31.7,25.0,30.09,WSW,248,0.0,0.0,76,0.00,,,0.00,WUHU216HW,2013-03-30 09:34:00,
2013-03-30 05:39:00,31.7,25.0,30.09,ESE,113,2.2,2.2,76,0.00,,,0.00,WUHU216HW,2013-03-30 09:39:00,
2013-03-30 05:44:00,31.5,24.9,30.09,ESE,113,0.9,2.2,76,0.00,,,0.00,WUHU216HW,2013-03-30 09:44:00,
2013-03-30 05:49:00,31.1,24.5,30.09,ESE,113,2.0,2.0,76,0.00,,,0.00,WUHU216HW,2013-03-30 09:49:00,
2013-03-30 05:54:00,31.0,24.3,30.09,ESE,113,1.1,2.5,76,0.00,,,0.00,WUHU216HW,2013-03-30 09:54:00,
2013-03-30 05:59:00,30.6,24.2,30.09,SE,135,2.0,2.5,77,0.00,,,0.00,WUHU216HW,2013-03-30 09:59:00,
2013-03-30 06:04:00,30.6,24.2,30.09,ESE,113,3.4,3.4,77,0.00,,,0.00,WUHU216HW,2013-03-30 10:04:00,
2013-03-30 06:09:00,30.4,24.0,30.09,ESE,113,2.5,3.4,77,0.00,,,0.00,WUHU216HW,2013-03-30 10:09:00,
2013-03-30 06:14:00,30.1,23.7,30.10,East,90,2.7,3.8,77,0.00,,,0.00,WUHU216HW,2013-03-30 10:14:00,
2013-03-30 06:19:00,30.2,24.2,30.10,East,90,1.1,3.8,78,0.00,,,0.00,WUHU216HW,2013-03-30 10:19:00,
2013-03-30 06:24:00,30.2,24.2,30.10,ESE,113,0.4,2.5,78,0.00,,,0.00,WUHU216HW,2013-03-30 10:24:00,
2013-03-30 06:29:00,30.1,24.0,30.10,ESE,113,0.0,1.1,78,0.00,,,0.00,WUHU216HW,2013-03-30 10:29:00,
2013-03-30 06:34:00,30.1,24.0,30.11,SW,225,0.0,0.7,78,0.00,,,0.00,WUHU216HW,2013-03-30 10:34:00,
2013-03-30 06:39:00,29.9,23.9,30.11,SE,135,0.7,0.7,78,0.00,,,0.00,WUHU216HW,2013-03-30 10:39:00,
2013-03-30 06:44:00,29.9,23.5,30.11,SE,135,1.1,1.8,77,0.00,,,0.00,WUHU216HW,2013-03-30 10:44:00,
2013-03-30 06:49:00,29.9,23.5,30.11,SE,135,0.2,1.8,77,0.00,,,0.00,WUHU216HW,2013-03-30 10:49:00,
2013-03-30 06:54:00,29.9,23.9,30.11,SW,225,0.0,1.1,78,0.00,,,0.00,WUHU216HW,2013-03-30 10:54:00,
2013-03-30 06:59:00,30.1,24.0,30.11,ESE,113,0.0,0.0,78,0.00,,,0.00,WUHU216HW,2013-03-30 10:59:00,
2013-03-30 07:04:00,30.1,24.0,30.11,SE,135,0.0,0.0,78,0.00,,,0.00,WUHU216HW,2013-03-30 11:04:00,
2013-03-30 07:09:00,30.2,24.2,30.11,SE,135,0.0,0.0,78,0.00,,,0.00,WUHU216HW,2013-03-30 11:09:00,
2013-03-30 07:14:00,30.6,24.6,30.12,East,90,0.0,0.0,78,0.00,,,0.00,WUHU216HW,2013-03-30 11:14:00,
2013-03-30 07:19:00,30.8,25.0,30.12,ENE,68,1.3,1.6,79,0.00,,,0.00,WUHU216HW,2013-03-30 11:19:00,
2013-03-30 07:24:00,31.0,24.9,30.12,East,90,0.9,1.8,78,0.00,,,0.00,WUHU216HW,2013-03-30 11:24:00,
2013-03-30 07:29:00,31.1,25.1,30.12,East,90,1.3,1.8,78,0.00,,,0.00,WUHU216HW,2013-03-30 11:29:00,
2013-03-30 07:34:00,31.5,25.5,30.12,ESE,113,1.1,1.8,78,0.00,,,0.00,WUHU216HW,2013-03-30 11:34:00,
2013-03-30 07:39:00,31.9,26.1,30.12,East,90,1.6,1.8,79,0.00,,,0.00,WUHU216HW,2013-03-30 11:39:00,
2013-03-30 07:44:00,32.0,26.6,30.12,East,90,1.3,1.8,80,0.00,,,0.00,WUHU216HW,2013-03-30 11:44:00,
2013-03-30 07:49:00,32.4,27.0,30.12,East,90,1.1,1.8,80,0.00,,,0.00,WUHU216HW,2013-03-30 11:49:00,
2013-03-30 07:54:00,32.6,26.8,30.12,ESE,113,0.0,1.3,79,0.00,,,0.00,WUHU216HW,2013-03-30 11:54:00,
2013-03-30 07:59:00,32.8,27.0,30.12,ESE,113,0.0,0.9,79,0.00,,,0.00,WUHU216HW,2013-03-30 11:59:00,
2013-03-30 08:04:00,33.1,27.3,30.12,SE,135,0.0,1.1,79,0.00,,,0.00,WUHU216HW,2013-03-30 12:04:00,
2013-03-30 08:09:00,33.5,27.6,30.13,SE,135,1.3,1.3,79,0.00,,,0.00,WUHU216HW,2013-03-30 12:09:00,
2013-03-30 08:14:00,33.7,27.5,30.13,NNE,23,0.0,1.3,78,0.00,,,0.00,WUHU216HW,2013-03-30 12:14:00,
2013-03-30 08:19:00,33.8,27.6,30.13,East,90,0.4,1.8,78,0.00,,,0.00,WUHU216HW,2013-03-30 12:19:00,
2013-03-30 08:24:00,34.4,28.2,30.13,ESE,113,0.7,1.8,78,0.00,,,0.00,WUHU216HW,2013-03-30 12:24:00,
2013-03-30 08:29:00,34.6,28.4,30.13,East,90,1.6,1.8,78,0.00,,,0.00,WUHU216HW,2013-03-30 12:29:00,
2013-03-30 08:34:00,34.9,28.7,30.13,ESE,113,0.9,1.6,78,0.00,,,0.00,WUHU216HW,2013-03-30 12:34:00,
2013-03-30 08:39:00,35.3,28.7,30.13,SE,135,0.2,1.6,77,0.00,,,0.00,WUHU216HW,2013-03-30 12:39:00,
2013-03-30 08:44:00,35.6,29.1,30.13,ENE,68,1.3,1.6,77,0.00,,,0.00,WUHU216HW,2013-03-30 12:44:00,
2013-03-30 08:49:00,36.0,29.4,30.12,SW,225,0.0,1.6,77,0.00,,,0.00,WUHU216HW,2013-03-30 12:49:00,
2013-03-30 08:54:00,36.2,29.4,30.13,West,270,0.9,0.9,76,0.00,,,0.00,WUHU216HW,2013-03-30 12:54:00,
2013-03-30 08:59:00,36.0,29.2,30.13,West,270,0.0,1.1,76,0.00,,,0.00,WUHU216HW,2013-03-30 12:59:00,
2013-03-30 09:04:00,35.6,28.8,30.13,WNW,293,1.1,1.8,76,0.00,,,0.00,WUHU216HW,2013-03-30 13:04:00,
2013-03-30 09:09:00,35.3,28.7,30.13,WNW,293,1.6,1.8,77,0.00,,,0.00,WUHU216HW,2013-03-30 13:09:00,
2013-03-30 09:14:00,35.1,28.9,30.13,WNW,293,1.3,2.0,78,0.00,,,0.00,WUHU216HW,2013-03-30 13:14:00,
2013-03-30 09:19:00,34.9,28.7,30.13,WNW,293,0.2,2.0,78,0.00,,,0.00,WUHU216HW,2013-03-30 13:19:00,
2013-03-30 09:24:00,34.9,29.0,30.12,West,270,1.3,2.0,79,0.00,,,0.00,WUHU216HW,2013-03-30 13:24:00,
2013-03-30 09:29:00,34.9,29.0,30.13,West,270,1.6,2.0,79,0.00,,,0.00,WUHU216HW,2013-03-30 13:29:00,
2013-03-30 09:34:00,34.9,29.0,30.12,West,270,1.3,2.0,79,0.00,,,0.00,WUHU216HW,2013-03-30 13:34:00,
2013-03-30 09:39:00,35.1,29.5,30.13,West,270,2.0,2.2,80,0.00,,,0.00,WUHU216HW,2013-03-30 13:39:00,
2013-03-30 09:44:00,35.3,29.7,30.13,West,270,1.8,2.2,80,0.00,,,0.00,WUHU216HW,2013-03-30 13:44:00,
2013-03-30 09:49:00,35.6,30.1,30.13,West,270,1.8,2.0,80,0.00,,,0.00,WUHU216HW,2013-03-30 13:49:00,
2013-03-30 09:54:00,35.6,30.1,30.13,WSW,248,0.9,2.5,80,0.00,,,0.00,WUHU216HW,2013-03-30 13:54:00,
2013-03-30 09:59:00,35.6,30.1,30.13,WNW,293,0.9,2.5,80,0.00,,,0.00,WUHU216HW,2013-03-30 13:59:00,
2013-03-30 10:04:00,35.8,29.9,30.12,West,270,1.8,1.8,79,0.00,,,0.00,WUHU216HW,2013-03-30 14:04:00,
2013-03-30 10:09:00,36.0,30.1,30.12,WSW,248,1.8,1.8,79,0.00,,,0.00,WUHU216HW,2013-03-30 14:09:00,
2013-03-30 10:14:00,36.4,30.4,30.12,WSW,248,2.5,2.5,79,0.00,,,0.00,WUHU216HW,2013-03-30 14:14:00,
2013-03-30 10:19:00,36.5,30.6,30.12,WSW,248,3.1,3.4,79,0.00,,,0.00,WUHU216HW,2013-03-30 14:19:00,
2013-03-30 10:24:00,36.9,31.0,30.12,WSW,248,1.6,3.4,79,0.00,,,0.00,WUHU216HW,2013-03-30 14:24:00,
2013-03-30 10:29:00,37.1,30.9,30.12,West,270,2.7,2.7,78,0.00,,,0.00,WUHU216HW,2013-03-30 14:29:00,
2013-03-30 10:34:00,37.1,30.9,30.12,WSW,248,2.9,3.1,78,0.00,,,0.00,WUHU216HW,2013-03-30 14:34:00,
2013-03-30 10:39:00,37.1,30.9,30.12,West,270,1.8,3.1,78,0.00,,,0.00,WUHU216HW,2013-03-30 14:39:00,
2013-03-30 10:41:00,37.3,31.1,30.12,NNW,338,1.8,1.8,78,0.00,,,0.00,WUHU216HW,2013-03-30 14:41:00,
2013-03-30 10:44:00,37.3,31.1,30.12,NNW,338,1.8,2.5,78,0.00,,,0.00,WUHU216HW,2013-03-30 14:44:00,
2013-03-30 10:49:00,37.3,31.1,30.12,NNW,338,1.8,2.2,78,0.00,,,0.00,WUHU216HW,2013-03-30 14:49:00,
2013-03-30 11:00:00,38.5,32.3,30.12,WSW,248,2.0,2.0,78,0.00,,,0.00,WUHU216HW,2013-03-30 15:00:00,
2013-03-30 11:05:00,38.9,32.3,30.11,WSW,248,3.1,3.1,77,0.00,,,0.00,WUHU216HW,2013-03-30 15:05:00,
2013-03-30 11:10:00,39.1,32.5,30.11,WSW,248,2.7,3.8,77,0.00,,,0.00,WUHU216HW,2013-03-30 15:10:00,
2013-03-30 11:15:00,39.2,32.7,30.11,West,270,2.2,3.8,77,0.00,,,0.00,WUHU216HW,2013-03-30 15:15:00,
2013-03-30 11:20:00,39.1,32.5,30.11,WSW,248,3.8,3.8,77,0.00,,,0.00,WUHU216HW,2013-03-30 15:20:00,
2013-03-30 11:25:00,39.1,32.1,30.11,West,270,2.7,4.0,76,0.00,,,0.00,WUHU216HW,2013-03-30 15:25:00,
2013-03-30 11:30:00,39.6,32.0,30.11,West,270,2.2,4.0,74,0.00,,,0.00,WUHU216HW,2013-03-30 15:30:00,
2013-03-30 11:35:00,40.3,32.3,30.11,WSW,248,2.0,2.7,73,0.00,,,0.00,WUHU216HW,2013-03-30 15:35:00,
2013-03-30 11:40:00,40.9,32.9,30.11,WSW,248,1.3,2.5,73,0.00,,,0.00,WUHU216HW,2013-03-30 15:40:00,
2013-03-30 11:45:00,41.4,33.0,30.11,WNW,293,1.8,2.0,72,0.00,,,0.00,WUHU216HW,2013-03-30 15:45:00,
2013-03-30 11:50:00,41.8,33.1,30.11,WNW,293,2.0,2.5,71,0.00,,,0.00,WUHU216HW,2013-03-30 15:50:00,
2013-03-30 11:55:00,41.9,32.9,30.11,West,270,2.2,2.7,70,0.00,,,0.00,WUHU216HW,2013-03-30 15:55:00,
2013-03-30 12:00:00,42.1,33.1,30.11,WNW,293,3.4,3.4,70,0.00,,,0.00,WUHU216HW,2013-03-30 16:00:00,
2013-03-30 12:05:00,41.8,32.4,30.11,West,270,5.8,5.8,69,0.00,,,0.00,WUHU216HW,2013-03-30 16:05:00,
2013-03-30 12:10:00,41.6,31.8,30.10,WSW,248,4.3,5.8,68,0.00,,,0.00,WUHU216HW,2013-03-30 16:10:00,
2013-03-30 12:15:00,42.1,32.3,30.10,NW,315,3.1,4.7,68,0.00,,,0.00,WUHU216HW,2013-03-30 16:15:00,
2013-03-30 12:20:00,42.3,33.0,30.10,WNW,293,3.8,4.0,69,0.00,,,0.00,WUHU216HW,2013-03-30 16:20:00,
2013-03-30 12:25:00,42.3,32.5,30.10,WNW,293,3.8,4.0,68,0.00,,,0.00,WUHU216HW,2013-03-30 16:25:00,
2013-03-30 12:30:00,42.1,32.0,30.10,WNW,293,3.6,4.7,67,0.00,,,0.00,WUHU216HW,2013-03-30 16:30:00,
2013-03-30 12:35:00,42.3,31.8,30.10,WNW,293,4.3,4.7,66,0.00,,,0.00,WUHU216HW,2013-03-30 16:35:00,
2013-03-30 12:40:00,42.1,31.1,30.10,NW,315,4.5,4.7,65,0.00,,,0.00,WUHU216HW,2013-03-30 16:40:00,
2013-03-30 12:45:00,41.9,30.3,30.10,WNW,293,4.0,4.9,63,0.00,,,0.00,WUHU216HW,2013-03-30 16:45:00,
2013-03-30 12:50:00,42.1,29.6,30.09,WNW,293,5.1,5.1,61,0.00,,,0.00,WUHU216HW,2013-03-30 16:50:00,
2013-03-30 12:55:00,42.8,29.4,30.09,WSW,248,4.7,5.4,59,0.00,,,0.00,WUHU216HW,2013-03-30 16:55:00,
2013-03-30 13:00:00,43.2,28.9,30.09,WNW,293,4.7,5.4,57,0.00,,,0.00,WUHU216HW,2013-03-30 17:00:00,
2013-03-30 13:05:00,43.6,28.8,30.09,WNW,293,6.0,6.7,56,0.00,,,0.00,WUHU216HW,2013-03-30 17:05:00,
2013-03-30 13:10:00,43.6,29.3,30.08,NW,315,4.5,6.7,57,0.00,,,0.00,WUHU216HW,2013-03-30 17:10:00,
2013-03-30 13:15:00,43.7,29.0,30.08,WNW,293,6.0,6.9,56,0.00,,,0.00,WUHU216HW,2013-03-30 17:15:00,
2013-03-30 13:20:00,44.1,29.3,30.08,North,0,4.3,7.6,56,0.00,,,0.00,WUHU216HW,2013-03-30 17:20:00,
2013-03-30 13:25:00,44.3,29.1,30.08,West,270,5.1,7.6,55,0.00,,,0.00,WUHU216HW,2013-03-30 17:25:00,
2013-03-30 13:30:00,45.0,30.3,30.08,WNW,293,5.8,7.4,56,0.00,,,0.00,WUHU216HW,2013-03-30 17:30:00,
2013-03-30 13:35:00,45.4,29.2,30.08,WNW,293,6.3,6.5,53,0.00,,,0.00,WUHU216HW,2013-03-30 17:35:00,
2013-03-30 13:40:00,45.2,28.5,30.08,NW,315,10.1,10.1,52,0.00,,,0.00,WUHU216HW,2013-03-30 17:40:00,
2013-03-30 13:45:00,45.4,28.7,30.08,NW,315,1.6,10.1,52,0.00,,,0.00,WUHU216HW,2013-03-30 17:45:00,
2013-03-30 13:50:00,46.4,28.8,30.08,West,270,6.3,7.6,50,0.00,,,0.00,WUHU216HW,2013-03-30 17:50:00,
2013-03-30 13:55:00,45.9,28.8,30.08,NW,315,7.6,7.6,51,0.00,,,0.00,WUHU216HW,2013-03-30 17:55:00,
2013-03-30 14:00:00,45.5,28.9,30.07,WNW,293,4.0,7.6,52,0.00,,,0.00,WUHU216HW,2013-03-30 18:00:00,
2013-03-30 14:05:00,45.4,28.7,30.08,West,270,2.5,6.9,52,0.00,,,0.00,WUHU216HW,2013-03-30 18:05:00,
2013-03-30 14:10:00,45.7,29.1,30.07,WNW,293,6.5,6.9,52,0.00,,,0.00,WUHU216HW,2013-03-30 18:10:00,
2013-03-30 14:15:00,45.7,29.1,30.07,WNW,293,9.2,9.2,52,0.00,,,0.00,WUHU216HW,2013-03-30 18:15:00,
2013-03-30 14:20:00,45.2,28.5,30.07,NW,315,5.8,9.2,52,0.00,,,0.00,WUHU216HW,2013-03-30 18:20:00,
2013-03-30 14:25:00,45.4,28.3,30.06,WNW,293,6.5,8.9,51,0.00,,,0.00,WUHU216HW,2013-03-30 18:25:00,
2013-03-30 14:30:00,46.3,28.6,30.06,NW,315,1.8,6.5,50,0.00,,,0.00,WUHU216HW,2013-03-30 18:30:00,
2013-03-30 14:35:00,47.0,29.3,30.06,WNW,293,6.7,6.7,50,0.00,,,0.00,WUHU216HW,2013-03-30 18:35:00,
2013-03-30 14:40:00,46.8,28.6,30.06,NW,315,6.7,8.5,49,0.00,,,0.00,WUHU216HW,2013-03-30 18:40:00,
2013-03-30 14:45:00,46.4,28.3,30.06,NW,315,6.0,8.5,49,0.00,,,0.00,WUHU216HW,2013-03-30 18:45:00,
2013-03-30 14:50:00,46.4,28.3,30.06,NW,315,9.8,9.8,49,0.00,,,0.00,WUHU216HW,2013-03-30 18:50:00,
2013-03-30 14:55:00,46.1,28.4,30.06,NW,315,8.7,9.8,50,0.00,,,0.00,WUHU216HW,2013-03-30 18:55:00,
2013-03-30 15:00:00,46.4,28.3,30.06,NW,315,5.4,9.8,49,0.00,,,0.00,WUHU216HW,2013-03-30 19:00:00,
2013-03-30 15:05:00,47.0,28.7,30.06,NW,315,5.4,9.8,49,0.00,,,0.00,WUHU216HW,2013-03-30 19:05:00,
2013-03-30 15:10:00,47.2,28.9,30.06,NW,315,6.7,7.8,49,0.00,,,0.00,WUHU216HW,2013-03-30 19:10:00,
2013-03-30 15:15:00,46.8,29.2,30.06,NW,315,5.8,7.6,50,0.00,,,0.00,WUHU216HW,2013-03-30 19:15:00,
2013-03-30 15:20:00,47.2,29.4,30.06,NW,315,6.9,7.6,50,0.00,,,0.00,WUHU216HW,2013-03-30 19:20:00,
2013-03-30 15:25:00,47.2,28.9,30.06,NW,315,6.5,6.9,49,0.00,,,0.00,WUHU216HW,2013-03-30 19:25:00,
2013-03-30 15:30:00,47.3,29.1,30.06,NW,315,6.9,6.9,49,0.00,,,0.00,WUHU216HW,2013-03-30 19:30:00,
2013-03-30 15:35:00,47.5,28.7,30.06,West,270,5.6,6.9,48,0.00,,,0.00,WUHU216HW,2013-03-30 19:35:00,
2013-03-30 15:40:00,47.3,28.5,30.06,West,270,7.4,9.2,48,0.00,,,0.00,WUHU216HW,2013-03-30 19:40:00,
2013-03-30 15:45:00,47.2,28.4,30.05,WNW,293,8.3,9.2,48,0.00,,,0.00,WUHU216HW,2013-03-30 19:45:00,
2013-03-30 15:50:00,47.5,28.7,30.06,West,270,3.1,8.7,48,0.00,,,0.00,WUHU216HW,2013-03-30 19:50:00,
2013-03-30 15:55:00,48.2,28.3,30.06,NNW,338,3.8,7.6,46,0.00,,,0.00,WUHU216HW,2013-03-30 19:55:00,
2013-03-30 16:00:00,49.3,28.7,30.05,West,270,5.6,5.6,45,0.00,,,0.00,WUHU216HW,2013-03-30 20:00:00,
2013-03-30 16:05:00,50.4,28.6,30.05,NW,315,5.4,6.0,43,0.00,,,0.00,WUHU216HW,2013-03-30 20:05:00,
2013-03-30 16:10:00,50.4,29.2,30.05,WNW,293,3.6,6.3,44,0.00,,,0.00,WUHU216HW,2013-03-30 20:10:00,
2013-03-30 16:15:00,50.8,29.0,30.05,NW,315,3.8,6.3,43,0.00,,,0.00,WUHU216HW,2013-03-30 20:15:00,
2013-03-30 16:20:00,50.9,28.5,30.05,NW,315,5.8,5.8,42,0.00,,,0.00,WUHU216HW,2013-03-30 20:20:00,
2013-03-30 16:25:00,49.5,27.3,30.05,WNW,293,6.7,8.7,42,0.00,,,0.00,WUHU216HW,2013-03-30 20:25:00,
2013-03-30 16:30:00,50.2,28.4,30.05,WNW,293,5.1,8.7,43,0.00,,,0.00,WUHU216HW,2013-03-30 20:30:00,
2013-03-30 16:35:00,51.8,29.3,30.05,WNW,293,6.0,7.8,42,0.00,,,0.00,WUHU216HW,2013-03-30 20:35:00,
2013-03-30 16:40:00,53.3,29.5,30.05,NW,315,5.4,7.8,40,0.00,,,0.00,WUHU216HW,2013-03-30 20:40:00,
2013-03-30 16:45:00,54.2,29.0,30.05,NW,315,7.2,7.2,38,0.00,,,0.00,WUHU216HW,2013-03-30 20:45:00,
2013-03-30 16:50:00,54.7,30.9,30.05,NW,315,5.1,7.2,40,0.00,,,0.00,WUHU216HW,2013-03-30 20:50:00,
2013-03-30 16:55:00,55.8,31.2,30.05,West,270,1.6,6.3,39,0.00,,,0.00,WUHU216HW,2013-03-30 20:55:00,
2013-03-30 17:00:00,56.2,30.1,30.05,NW,315,4.5,6.3,37,0.00,,,0.00,WUHU216HW,2013-03-30 21:00:00,
2013-03-30 17:05:00,55.3,30.6,30.05,WNW,293,4.7,6.0,39,0.00,,,0.00,WUHU216HW,2013-03-30 21:05:00,
2013-03-30 17:10:00,55.1,29.8,30.05,WNW,293,6.0,6.9,38,0.00,,,0.00,WUHU216HW,2013-03-30 21:10:00,
2013-03-30 17:15:00,55.1,30.5,30.05,NNW,338,4.0,6.9,39,0.00,,,0.00,WUHU216HW,2013-03-30 21:15:00,
2013-03-30 17:20:00,56.3,30.9,30.05,West,270,4.0,6.0,38,0.00,,,0.00,WUHU216HW,2013-03-30 21:20:00,
2013-03-30 17:25:00,55.4,28.7,30.05,WNW,293,5.8,6.0,36,0.00,,,0.00,WUHU216HW,2013-03-30 21:25:00,
2013-03-30 17:30:00,55.1,29.8,30.05,WNW,293,3.4,5.8,38,0.00,,,0.00,WUHU216HW,2013-03-30 21:30:00,
2013-03-30 17:35:00,54.9,28.9,30.05,NNW,338,4.3,5.4,37,0.00,,,0.00,WUHU216HW,2013-03-30 21:35:00,
2013-03-30 17:40:00,55.4,29.4,30.05,West,270,4.7,5.4,37,0.00,,,0.00,WUHU216HW,2013-03-30 21:40:00,
2013-03-30 17:45:00,56.7,29.8,30.06,NNW,338,4.7,4.7,36,0.00,,,0.00,WUHU216HW,2013-03-30 21:45:00,
2013-03-30 17:50:00,58.9,30.3,30.06,NW,315,3.1,4.7,34,0.00,,,0.00,WUHU216HW,2013-03-30 21:50:00,
2013-03-30 17:55:00,60.1,30.0,30.06,WNW,293,1.3,4.5,32,0.00,,,0.00,WUHU216HW,2013-03-30 21:55:00,
2013-03-30 18:00:00,60.5,29.6,30.06,NW,315,2.2,5.4,31,0.00,,,0.00,WUHU216HW,2013-03-30 22:00:00,
2013-03-30 18:05:00,61.9,30.9,30.06,NW,315,1.3,5.4,31,0.00,,,0.00,WUHU216HW,2013-03-30 22:05:00,
2013-03-30 18:10:00,62.8,31.0,30.06,NNW,338,5.4,5.4,30,0.00,,,0.00,WUHU216HW,2013-03-30 22:10:00,
2013-03-30 18:15:00,62.8,30.0,30.06,NW,315,2.7,5.4,29,0.00,,,0.00,WUHU216HW,2013-03-30 22:15:00,
2013-03-30 18:20:00,63.0,30.2,30.06,NW,315,3.6,5.4,29,0.00,,,0.00,WUHU216HW,2013-03-30 22:20:00,
2013-03-30 18:25:00,62.3,28.5,30.06,NNE,23,4.0,4.3,28,0.00,,,0.00,WUHU216HW,2013-03-30 22:25:00,
2013-03-30 18:30:00,64.1,30.1,30.06,North,0,3.1,4.3,28,0.00,,,0.00,WUHU216HW,2013-03-30 22:30:00,
2013-03-30 18:35:00,65.7,32.5,30.06,NNE,23,1.8,4.3,29,0.00,,,0.00,WUHU216HW,2013-03-30 22:35:00,
2013-03-30 18:40:00,65.2,31.1,30.06,NNW,338,1.3,3.4,28,0.00,,,0.00,WUHU216HW,2013-03-30 22:40:00,
2013-03-30 18:45:00,64.6,29.6,30.06,NNW,338,3.1,3.4,27,0.00,,,0.00,WUHU216HW,2013-03-30 22:45:00,
2013-03-30 18:50:00,64.4,30.4,30.06,NW,315,3.4,3.4,28,0.00,,,0.00,WUHU216HW,2013-03-30 22:50:00,
2013-03-30 18:55:00,64.1,30.1,30.06,North,0,3.4,3.4,28,0.00,,,0.00,WUHU216HW,2013-03-30 22:55:00,
2013-03-30 19:00:00,61.9,27.3,30.07,NNW,338,2.2,3.4,27,0.00,,,0.00,WUHU216HW,2013-03-30 23:00:00,
2013-03-30 19:05:00,58.5,25.3,30.07,NW,315,2.5,2.7,28,0.00,,,0.00,WUHU216HW,2013-03-30 23:05:00,
2013-03-30 19:10:00,55.8,24.9,30.07,NW,315,2.2,3.1,30,0.00,,,0.00,WUHU216HW,2013-03-30 23:10:00,
2013-03-30 19:15:00,53.5,23.6,30.07,NW,315,1.8,3.1,31,0.00,,,0.00,WUHU216HW,2013-03-30 23:15:00,
2013-03-30 19:20:00,51.8,23.5,30.07,NW,315,2.2,3.1,33,0.00,,,0.00,WUHU216HW,2013-03-30 23:20:00,
2013-03-30 19:25:00,50.4,23.6,30.07,WNW,293,2.5,2.5,35,0.00,,,0.00,WUHU216HW,2013-03-30 23:25:00,
2013-03-30 19:30:00,49.3,22.0,30.07,NNW,338,2.5,2.9,34,0.00,,,0.00,WUHU216HW,2013-03-30 23:30:00,
2013-03-30 19:35:00,48.4,21.2,30.07,NNW,338,0.2,2.9,34,0.00,,,0.00,WUHU216HW,2013-03-30 23:35:00,
2013-03-30 19:40:00,47.9,20.7,30.08,NW,315,2.0,2.5,34,0.00,,,0.00,WUHU216HW,2013-03-30 23:40:00,
2013-03-30 19:45:00,47.3,20.3,30.08,WNW,293,2.0,2.5,34,0.00,,,0.00,WUHU216HW,2013-03-30 23:45:00,
2013-03-30 19:50:00,46.8,20.4,30.08,West,270,0.7,2.5,35,0.00,,,0.00,WUHU216HW,2013-03-30 23:50:00,
2013-03-30 19:55:00,46.3,20.6,30.08,NW,315,1.8,2.0,36,0.00,,,0.00,WUHU216HW,2013-03-30 23:55:00,
2013-03-30 20:00:00,45.4,20.4,30.08,West,270,1.1,2.2,37,0.00,,,0.00,WUHU216HW,2013-03-31 00:00:00,
2013-03-30 20:05:00,44.6,20.4,30.08,NW,315,1.8,2.2,38,0.00,,,0.00,WUHU216HW,2013-03-31 00:05:00,
2013-03-30 20:10:00,44.3,20.8,30.08,WNW,293,1.3,2.0,39,0.00,,,0.00,WUHU216HW,2013-03-31 00:10:00,
2013-03-30 20:15:00,43.7,21.5,30.08,West,270,1.3,2.0,41,0.00,,,0.00,WUHU216HW,2013-03-31 00:15:00,
2013-03-30 20:20:00,43.2,20.5,30.09,NW,315,1.8,2.2,40,0.00,,,0.00,WUHU216HW,2013-03-31 00:20:00,
2013-03-30 20:25:00,42.8,20.7,30.09,NW,315,1.3,2.2,41,0.00,,,0.00,WUHU216HW,2013-03-31 00:25:00,
2013-03-30 20:30:00,42.3,20.3,30.09,NW,315,2.0,2.2,41,0.00,,,0.00,WUHU216HW,2013-03-31 00:30:00,
2013-03-30 20:35:00,42.1,19.5,30.09,NW,315,1.8,2.5,40,0.00,,,0.00,WUHU216HW,2013-03-31 00:35:00,
2013-03-30 20:38:00,42.1,19.5,30.09,NW,315,1.6,1.6,40,0.00,,,0.00,WUHU216HW,2013-03-31 00:38:00,
2013-03-30 20:40:00,42.1,19.5,30.09,NW,315,1.6,2.5,40,0.00,,,0.00,WUHU216HW,2013-03-31 00:40:00,
2013-03-30 20:45:00,42.1,19.5,30.09,NW,315,1.6,2.5,40,0.00,,,0.00,WUHU216HW,2013-03-31 00:45:00,
2013-03-30 21:00:00,41.4,19.4,30.09,NW,315,0.0,0.0,41,0.00,,,0.00,WUHU216HW,2013-03-31 01:00:00,
2013-03-30 21:05:00,41.0,19.1,30.09,WSW,248,1.3,1.3,41,0.00,,,0.00,WUHU216HW,2013-03-31 01:05:00,
2013-03-30 21:10:00,41.0,19.6,30.10,WSW,248,0.9,1.3,42,0.00,,,0.00,WUHU216HW,2013-03-31 01:10:00,
2013-03-30 21:15:00,40.7,19.3,30.09,West,270,1.1,1.3,42,0.00,,,0.00,WUHU216HW,2013-03-31 01:15:00,
2013-03-30 21:20:00,40.3,19.4,30.10,WNW,293,1.3,1.6,43,0.00,,,0.00,WUHU216HW,2013-03-31 01:20:00,
2013-03-30 21:25:00,40.0,19.2,30.09,NW,315,1.8,2.7,43,0.00,,,0.00,WUHU216HW,2013-03-31 01:25:00,
2013-03-30 21:30:00,39.8,19.0,30.09,WNW,293,1.8,2.7,43,0.00,,,0.00,WUHU216HW,2013-03-31 01:30:00,
2013-03-30 21:35:00,39.6,18.8,30.09,WNW,293,0.4,1.8,43,0.00,,,0.00,WUHU216HW,2013-03-31 01:35:00,
2013-03-30 21:40:00,39.6,19.4,30.10,East,90,0.7,1.1,44,0.00,,,0.00,WUHU216HW,2013-03-31 01:40:00,
2013-03-30 21:45:00,39.2,19.0,30.10,ESE,113,0.0,0.9,44,0.00,,,0.00,WUHU216HW,2013-03-31 01:45:00,
2013-03-30 21:50:00,39.2,19.0,30.10,SW,225,1.3,1.3,44,0.00,,,0.00,WUHU216HW,2013-03-31 01:50:00,
2013-03-30 21:55:00,38.9,19.2,30.10,WSW,248,0.7,1.3,45,0.00,,,0.00,WUHU216HW,2013-03-31 01:55:00,
2013-03-30 22:00:00,38.5,19.5,30.10,WSW,248,0.7,1.3,46,0.00,,,0.00,WUHU216HW,2013-03-31 02:00:00,
2013-03-30 22:05:00,38.3,20.3,30.10,WSW,248,1.1,1.1,48,0.00,,,0.00,WUHU216HW,2013-03-31 02:05:00,
2013-03-30 22:10:00,38.2,21.2,30.10,WSW,248,0.4,1.1,50,0.00,,,0.00,WUHU216HW,2013-03-31 02:10:00,
2013-03-30 22:15:00,37.8,21.2,30.10,WSW,248,0.7,1.6,51,0.00,,,0.00,WUHU216HW,2013-03-31 02:15:00,
2013-03-30 22:20:00,37.6,21.2,30.10,WSW,248,0.0,1.6,51,0.00,,,0.00,WUHU216HW,2013-03-31 02:20:00,
2013-03-30 22:25:00,37.3,21.3,30.10,WSW,248,0.0,0.7,52,0.00,,,0.00,WUHU216HW,2013-03-31 02:25:00,
2013-03-30 22:30:00,37.1,21.5,30.10,WSW,248,0.0,0.7,53,0.00,,,0.00,WUHU216HW,2013-03-31 02:30:00,
2013-03-30 22:35:00,36.9,21.3,30.10,WSW,248,0.0,0.0,53,0.00,,,0.00,WUHU216HW,2013-03-31 02:35:00,
2013-03-30 22:40:00,36.7,21.2,30.10,ESE,113,1.3,1.3,53,0.00,,,0.00,WUHU216HW,2013-03-31 02:40:00,
2013-03-30 22:45:00,36.4,21.2,30.10,ESE,113,2.5,2.5,54,0.00,,,0.00,WUHU216HW,2013-03-31 02:45:00,
2013-03-30 22:50:00,35.8,20.8,30.10,SE,135,2.5,2.5,54,0.00,,,0.00,WUHU216HW,2013-03-31 02:50:00,
2013-03-30 22:55:00,35.5,20.4,30.10,ESE,113,2.2,2.7,54,0.00,,,0.00,WUHU216HW,2013-03-31 02:55:00,
2013-03-30 23:00:00,34.9,19.9,30.10,ESE,113,1.1,2.7,54,0.00,,,0.00,WUHU216HW,2013-03-31 03:00:00,
2013-03-30 23:05:00,34.6,20.0,30.09,ESE,113,3.4,3.4,55,0.00,,,0.00,WUHU216HW,2013-03-31 03:05:00,
2013-03-30 23:10:00,34.2,19.6,30.10,ESE,113,1.6,3.6,55,0.00,,,0.00,WUHU216HW,2013-03-31 03:10:00,
2013-03-30 23:15:00,33.8,19.3,30.09,SE,135,2.9,3.6,55,0.00,,,0.00,WUHU216HW,2013-03-31 03:15:00,
2013-03-30 23:20:00,33.5,19.4,30.09,ESE,113,2.0,2.9,56,0.00,,,0.00,WUHU216HW,2013-03-31 03:20:00,
2013-03-30 23:25:00,33.3,19.2,30.09,ESE,113,3.1,3.1,56,0.00,,,0.00,WUHU216HW,2013-03-31 03:25:00,
2013-03-30 23:30:00,32.8,18.7,30.10,SSE,158,3.1,3.4,56,0.00,,,0.00,WUHU216HW,2013-03-31 03:30:00,
2013-03-30 23:35:00,32.4,19.3,30.09,ESE,113,1.1,3.4,58,0.00,,,0.00,WUHU216HW,2013-03-31 03:35:00,
2013-03-30 23:40:00,32.6,19.5,30.10,SE,135,2.0,2.5,58,0.00,,,0.00,WUHU216HW,2013-03-31 03:40:00,
2013-03-30 23:45:00,32.4,19.3,30.09,ESE,113,1.6,2.0,58,0.00,,,0.00,WUHU216HW,2013-03-31 03:45:00,
2013-03-30 23:50:00,32.4,19.7,30.09,ESE,113,3.6,3.6,59,0.00,,,0.00,WUHU216HW,2013-03-31 03:50:00,
2013-03-30 23:55:00,32.0,18.9,30.09,East,90,2.7,3.6,58,0.00,,,0.00,WUHU216HW,2013-03-31 03:55:00,